createdAt,value
2017-12-16T00:01:09.678Z,11.60
2017-12-16T00:03:37.113Z,11.85
2017-12-16T00:06:04.586Z,10.83
2017-12-16T00:08:32.004Z,11.93
2017-12-16T00:10:59.492Z,12.10
2017-12-16T00:13:26.930Z,12.43
2017-12-16T00:15:54.347Z,11.40
2017-12-16T00:18:21.798Z,13.23
2017-12-16T00:20:49.232Z,12.77
2017-12-16T00:23:16.650Z,12.83
2017-12-16T00:25:44.094Z,12.30
2017-12-16T00:28:11.560Z,13.87
2017-12-16T00:30:38.996Z,14.10
2017-12-16T00:33:06.422Z,14.87
2017-12-16T00:35:33.852Z,14.10
2017-12-16T00:38:01.272Z,15.00
2017-12-16T00:40:28.705Z,14.93
2017-12-16T00:42:56.167Z,16.07
2017-12-16T00:45:23.576Z,14.98
2017-12-16T00:47:51.021Z,16.93
2017-12-16T00:50:18.424Z,16.52
2017-12-16T00:52:46.019Z,15.73
2017-12-16T00:55:13.433Z,15.30
2017-12-16T00:57:40.870Z,17.30
2017-12-16T01:00:08.565Z,15.50
2017-12-16T01:02:36.030Z,16.30
2017-12-16T01:05:03.459Z,15.10
2017-12-16T01:07:30.926Z,15.13
2017-12-16T01:09:58.334Z,13.37
2017-12-16T01:12:25.894Z,13.70
2017-12-16T01:14:53.315Z,14.47
2017-12-16T01:17:20.865Z,13.57
2017-12-16T01:19:48.253Z,14.73
2017-12-16T01:22:15.709Z,15.10
2017-12-16T01:24:43.145Z,15.13
2017-12-16T01:27:10.567Z,15.63
2017-12-16T01:29:38.045Z,16.33
2017-12-16T01:32:05.476Z,16.50
2017-12-16T01:34:44.561Z,17.67
2017-12-16T01:37:23.712Z,16.00
2017-12-16T01:39:51.215Z,14.80
2017-12-16T01:42:18.776Z,17.10
2017-12-16T01:44:46.251Z,16.40
2017-12-16T01:47:13.681Z,16.87
2017-12-16T01:49:41.149Z,18.53
2017-12-16T01:52:08.691Z,16.70
2017-12-16T01:54:36.112Z,18.40
2017-12-16T01:57:03.530Z,17.80
2017-12-16T01:59:31.199Z,16.90
2017-12-16T02:01:58.782Z,17.07
2017-12-16T02:04:26.210Z,18.80
2017-12-16T02:06:53.775Z,17.83
2017-12-16T02:09:21.173Z,17.37
2017-12-16T02:11:48.698Z,16.37
2017-12-16T02:14:16.168Z,17.10
2017-12-16T02:16:43.649Z,17.83
2017-12-16T02:19:11.152Z,16.90
2017-12-16T02:21:38.653Z,15.73
2017-12-16T02:24:06.100Z,17.40
2017-12-16T02:26:33.544Z,13.67
2017-12-16T02:29:01.164Z,14.18
2017-12-16T02:31:28.765Z,14.60
2017-12-16T02:33:56.206Z,14.40
2017-12-16T02:36:23.616Z,13.43
2017-12-16T02:38:51.124Z,14.95
2017-12-16T02:41:18.594Z,13.43
2017-12-16T02:43:46.089Z,13.80
2017-12-16T02:46:13.663Z,13.20
2017-12-16T02:48:41.271Z,14.23
2017-12-16T02:51:08.742Z,14.57
2017-12-16T02:53:36.204Z,14.15
2017-12-16T02:56:03.649Z,13.80
2017-12-16T02:58:31.071Z,14.63
2017-12-16T03:00:58.496Z,13.47
2017-12-16T03:03:25.913Z,14.03
2017-12-16T03:05:53.338Z,14.00
2017-12-16T03:08:21.397Z,14.35
2017-12-16T03:10:48.820Z,13.80
2017-12-16T03:13:16.262Z,12.90
2017-12-16T03:15:43.716Z,13.87
2017-12-16T03:18:11.150Z,11.93
2017-12-16T03:20:38.563Z,13.60
2017-12-16T03:23:06.056Z,14.90
2017-12-16T03:25:33.471Z,13.13
2017-12-16T03:28:00.911Z,14.20
2017-12-16T03:30:28.421Z,13.60
2017-12-16T03:32:55.982Z,14.13
2017-12-16T03:35:23.416Z,13.47
2017-12-16T03:37:50.837Z,13.73
2017-12-16T03:40:18.244Z,14.63
2017-12-16T03:42:45.697Z,14.10
2017-12-16T03:45:13.125Z,14.43
2017-12-16T03:47:40.591Z,14.80
2017-12-16T03:50:08.005Z,14.77
2017-12-16T03:52:35.418Z,13.80
2017-12-16T03:55:03.060Z,14.10
2017-12-16T03:57:30.496Z,14.13
2017-12-16T03:59:57.971Z,12.50
2017-12-16T04:02:25.396Z,13.47
2017-12-16T04:04:53.110Z,12.93
2017-12-16T04:07:20.542Z,11.77
2017-12-16T04:09:47.981Z,14.47
2017-12-16T04:12:15.410Z,13.23
2017-12-16T04:14:42.854Z,12.90
2017-12-16T04:17:10.289Z,13.13
2017-12-16T04:19:37.700Z,13.85
2017-12-16T04:22:05.153Z,13.07
2017-12-16T04:24:32.585Z,12.37
2017-12-16T04:26:59.998Z,12.03
2017-12-16T04:29:27.446Z,10.30
2017-12-16T04:31:54.894Z,9.83
2017-12-16T04:34:22.318Z,9.57
2017-12-16T04:36:49.834Z,10.63
2017-12-16T04:39:17.256Z,10.13
2017-12-16T04:41:44.669Z,12.10
2017-12-16T04:44:12.145Z,11.30
2017-12-16T04:46:39.575Z,11.73
2017-12-16T04:49:06.993Z,11.97
2017-12-16T04:51:34.441Z,11.27
2017-12-16T04:54:01.857Z,11.10
2017-12-16T04:56:29.294Z,10.30
2017-12-16T04:58:56.706Z,9.50
2017-12-16T05:01:24.148Z,9.97
2017-12-16T05:03:51.580Z,10.53
2017-12-16T05:06:19.021Z,10.33
2017-12-16T05:08:46.439Z,10.20
2017-12-16T05:11:13.896Z,9.60
2017-12-16T05:13:41.369Z,9.33
2017-12-16T05:16:08.812Z,9.40
2017-12-16T05:18:36.223Z,9.00
2017-12-16T05:21:03.692Z,9.67
2017-12-16T05:23:31.098Z,9.10
2017-12-16T05:25:58.530Z,9.30
2017-12-16T05:28:25.960Z,9.43
2017-12-16T05:30:53.376Z,10.80
2017-12-16T05:33:20.801Z,10.80
2017-12-16T05:35:48.244Z,9.30
2017-12-16T05:38:15.926Z,8.93
2017-12-16T05:40:43.333Z,8.83
2017-12-16T05:43:10.758Z,9.07
2017-12-16T05:45:39.041Z,8.23
2017-12-16T05:48:06.465Z,10.00
2017-12-16T05:50:33.912Z,10.03
2017-12-16T05:53:01.360Z,9.77
2017-12-16T05:55:28.753Z,9.80
2017-12-16T05:57:56.206Z,9.00
2017-12-16T06:00:23.621Z,9.67
2017-12-16T06:02:51.074Z,9.13
2017-12-16T06:05:18.515Z,9.23
2017-12-16T06:07:45.917Z,8.27
2017-12-16T06:10:13.377Z,9.73
2017-12-16T06:12:41.227Z,7.77
2017-12-16T06:15:09.648Z,9.60
2017-12-16T06:17:37.037Z,9.70
2017-12-16T06:20:04.474Z,9.73
2017-12-16T06:22:31.952Z,7.80
2017-12-16T06:24:59.388Z,8.07
2017-12-16T06:27:26.808Z,8.37
2017-12-16T06:29:54.618Z,7.75
2017-12-16T06:32:22.023Z,9.27
2017-12-16T06:34:49.846Z,9.27
2017-12-16T06:37:17.260Z,9.80
2017-12-16T06:39:44.729Z,10.37
2017-12-16T06:42:12.157Z,8.90
2017-12-16T06:44:39.552Z,8.47
2017-12-16T06:47:06.977Z,8.73
2017-12-16T06:49:34.429Z,10.03
2017-12-16T06:52:04.256Z,7.40
2017-12-16T06:54:37.609Z,7.73
2017-12-16T06:57:05.254Z,7.17
2017-12-16T06:59:32.665Z,6.93
2017-12-16T07:02:00.138Z,8.50
2017-12-16T07:04:27.594Z,6.50
2017-12-16T07:06:55.076Z,6.97
2017-12-16T07:09:22.476Z,6.70
2017-12-16T07:11:49.897Z,6.97
2017-12-16T07:14:17.329Z,7.00
2017-12-16T07:16:44.764Z,15.73
2017-12-16T07:19:12.179Z,7.27
2017-12-16T07:21:39.631Z,7.23
2017-12-16T07:24:07.140Z,6.70
2017-12-16T07:26:34.562Z,6.30
2017-12-16T07:29:01.993Z,5.50
2017-12-16T07:31:29.428Z,6.90
2017-12-16T07:33:56.847Z,6.50
2017-12-16T07:36:24.264Z,7.57
2017-12-16T07:38:51.716Z,7.60
2017-12-16T07:41:19.136Z,6.80
2017-12-16T07:43:46.549Z,5.30
2017-12-16T07:46:14.013Z,10.00
2017-12-16T07:48:41.431Z,9.77
2017-12-16T07:51:09.498Z,11.13
2017-12-16T07:53:36.937Z,12.00
2017-12-16T07:56:04.416Z,13.60
2017-12-16T07:58:31.820Z,13.90
2017-12-16T08:00:59.313Z,12.97
2017-12-16T08:03:26.732Z,13.40
2017-12-16T08:05:54.187Z,13.40
2017-12-16T08:08:21.629Z,13.00
2017-12-16T08:10:49.220Z,15.03
2017-12-16T08:13:17.006Z,16.43
2017-12-16T08:15:44.497Z,16.40
2017-12-16T08:18:12.813Z,15.60
2017-12-16T08:20:40.285Z,14.33
2017-12-16T08:23:07.915Z,15.38
2017-12-16T08:25:35.365Z,18.00
2017-12-16T08:28:02.829Z,16.30
2017-12-16T08:30:30.278Z,14.80
2017-12-16T08:32:57.744Z,15.90
2017-12-16T08:35:25.329Z,16.80
2017-12-16T08:37:52.737Z,16.60
2017-12-16T08:40:20.264Z,16.63
2017-12-16T08:42:47.907Z,17.57
2017-12-16T08:45:15.436Z,17.50
2017-12-16T08:47:42.861Z,17.50
2017-12-16T08:50:10.327Z,17.83
2017-12-16T08:52:37.809Z,19.37
2017-12-16T08:55:05.285Z,19.93
2017-12-16T08:57:32.767Z,19.70
2017-12-16T09:00:00.217Z,20.27
2017-12-16T09:02:27.684Z,20.53
2017-12-16T09:04:55.112Z,22.70
2017-12-16T09:07:23.570Z,21.37
2017-12-16T09:09:51.006Z,21.70
2017-12-16T09:12:18.730Z,20.60
2017-12-16T09:14:47.170Z,21.50
2017-12-16T09:17:14.844Z,22.50
2017-12-16T09:19:42.350Z,23.30
2017-12-16T09:22:09.804Z,23.13
2017-12-16T09:24:37.305Z,23.70
2017-12-16T09:27:04.741Z,24.17
2017-12-16T09:29:32.232Z,24.07
2017-12-16T09:31:59.682Z,24.63
2017-12-16T09:34:27.122Z,24.75
2017-12-16T09:36:54.588Z,23.90
2017-12-16T09:39:22.020Z,24.50
2017-12-16T09:41:49.474Z,26.20
2017-12-16T09:44:16.923Z,22.27
2017-12-16T09:46:44.347Z,25.33
2017-12-16T09:49:11.832Z,24.60
2017-12-16T09:51:39.293Z,24.80
2017-12-16T09:54:07.052Z,23.93
2017-12-16T09:56:34.557Z,24.17
2017-12-16T09:59:01.980Z,25.27
2017-12-16T10:01:29.432Z,23.83
2017-12-16T10:03:56.942Z,23.30
2017-12-16T10:06:24.381Z,25.10
2017-12-16T10:08:51.814Z,25.03
2017-12-16T10:11:19.276Z,25.45
2017-12-16T10:13:46.726Z,25.50
2017-12-16T10:16:14.306Z,24.97
2017-12-16T10:18:41.743Z,23.80
2017-12-16T10:21:09.166Z,24.60
2017-12-16T10:23:36.642Z,24.97
2017-12-16T10:26:04.183Z,25.77
2017-12-16T10:28:32.209Z,24.60
2017-12-16T10:30:59.620Z,24.93
2017-12-16T10:33:27.470Z,27.10
2017-12-16T10:35:54.882Z,25.70
2017-12-16T10:38:23.125Z,26.00
2017-12-16T10:40:50.550Z,25.93
2017-12-16T10:43:18.030Z,25.07
2017-12-16T10:45:47.350Z,25.95
2017-12-16T11:01:09.963Z,22.73
2017-12-16T11:03:37.891Z,24.00
2017-12-16T11:06:05.445Z,24.30
2017-12-16T11:08:33.094Z,24.60
2017-12-16T11:11:00.645Z,24.75
2017-12-16T11:13:28.084Z,25.50
2017-12-16T11:15:56.591Z,26.63
2017-12-16T11:18:24.111Z,25.80
2017-12-16T11:20:51.735Z,25.50
2017-12-16T11:23:19.193Z,24.20
2017-12-16T11:25:46.635Z,24.87
2017-12-16T11:28:14.089Z,24.90
2017-12-16T11:30:41.506Z,23.97
2017-12-16T11:33:09.164Z,25.13
2017-12-16T11:35:36.634Z,25.63
2017-12-16T11:38:04.070Z,24.07
2017-12-16T11:40:32.506Z,23.27
2017-12-16T11:43:00.197Z,25.80
2017-12-16T11:45:27.968Z,114.33
2017-12-16T11:47:55.450Z,30.10
2017-12-16T11:50:23.885Z,24.23
2017-12-16T11:52:52.531Z,22.77
2017-12-16T11:55:21.102Z,24.57
2017-12-16T12:10:43.605Z,20.60
2017-12-16T12:13:11.061Z,20.60
2017-12-16T12:15:38.508Z,21.77
2017-12-16T12:18:06.015Z,20.37
2017-12-16T12:20:33.550Z,18.57
2017-12-16T12:23:01.001Z,15.25
2017-12-16T12:25:28.444Z,15.17
2017-12-16T12:27:55.971Z,15.20
2017-12-16T12:30:23.370Z,12.30
2017-12-16T12:32:50.886Z,13.27
2017-12-16T12:35:18.322Z,11.77
2017-12-16T12:37:45.867Z,11.30
2017-12-16T12:40:13.313Z,10.40
2017-12-16T12:42:41.655Z,10.73
2017-12-16T12:45:09.161Z,11.00
2017-12-16T12:47:36.684Z,10.03
2017-12-16T12:50:04.302Z,10.17
2017-12-16T12:52:31.706Z,9.33
2017-12-16T12:54:59.209Z,11.05
2017-12-16T12:57:26.665Z,10.10
2017-12-16T12:59:54.107Z,10.20
2017-12-16T13:02:21.569Z,10.03
2017-12-16T13:04:49.021Z,11.35
2017-12-16T13:07:20.343Z,11.87
2017-12-16T13:22:42.811Z,10.40
2017-12-16T13:25:10.250Z,10.60
2017-12-16T13:27:37.706Z,10.60
2017-12-16T13:30:05.145Z,10.27
2017-12-16T13:32:32.629Z,10.40
2017-12-16T13:35:00.071Z,11.47
2017-12-16T13:37:28.449Z,12.07
2017-12-16T13:40:00.095Z,10.40
2017-12-16T13:42:27.544Z,11.20
2017-12-16T13:44:55.010Z,11.60
2017-12-16T13:47:22.469Z,12.07
2017-12-16T13:49:49.930Z,12.93
2017-12-16T13:52:17.378Z,12.05
2017-12-16T13:54:45.050Z,12.53
2017-12-16T13:57:12.524Z,11.70
2017-12-16T13:59:40.199Z,12.07
2017-12-16T14:02:07.788Z,11.67
2017-12-16T14:04:35.747Z,11.23
2017-12-16T14:07:03.194Z,12.30
2017-12-16T14:09:30.742Z,11.33
2017-12-16T14:11:58.216Z,12.40
2017-12-16T14:14:25.714Z,11.20
2017-12-16T14:16:53.156Z,10.97
2017-12-16T14:19:20.745Z,11.30
2017-12-16T14:21:48.360Z,10.90
2017-12-16T14:24:17.107Z,10.80
2017-12-16T14:26:44.598Z,10.27
2017-12-16T14:29:12.612Z,10.97
2017-12-16T14:31:40.125Z,10.57
2017-12-16T14:34:08.856Z,10.30
2017-12-16T14:36:37.484Z,10.17
2017-12-16T14:39:05.179Z,9.00
2017-12-16T14:41:32.878Z,9.57
2017-12-16T14:44:00.984Z,10.07
2017-12-16T14:46:29.943Z,9.50
2017-12-16T14:48:57.478Z,9.40
2017-12-16T14:51:25.127Z,10.73
2017-12-16T14:53:53.318Z,9.60
2017-12-16T14:56:21.239Z,10.07
2017-12-16T14:58:48.740Z,9.80
2017-12-16T15:01:16.744Z,10.50
2017-12-16T15:03:44.296Z,9.80
2017-12-16T15:06:11.791Z,9.33
2017-12-16T15:08:39.352Z,9.37
2017-12-16T15:11:06.829Z,9.93
2017-12-16T15:13:34.285Z,8.77
2017-12-16T15:16:01.746Z,9.00
2017-12-16T15:18:29.279Z,9.27
2017-12-16T15:20:57.109Z,8.60
2017-12-16T15:23:24.894Z,8.95
2017-12-16T15:25:52.345Z,9.07
2017-12-16T15:28:19.883Z,8.80
2017-12-16T15:30:47.311Z,8.20
2017-12-16T15:33:14.722Z,9.50
2017-12-16T15:35:42.177Z,9.20
2017-12-16T15:38:09.627Z,7.33
2017-12-16T15:40:37.130Z,7.40
2017-12-16T15:43:04.716Z,7.57
2017-12-16T15:45:32.241Z,8.07
2017-12-16T15:47:59.711Z,7.07
2017-12-16T15:50:27.174Z,7.03
2017-12-16T15:52:54.596Z,7.07
2017-12-16T15:55:22.072Z,7.63
2017-12-16T15:57:49.561Z,7.57
2017-12-16T16:00:17.618Z,7.00
2017-12-16T16:02:45.234Z,7.20
2017-12-16T16:05:13.332Z,8.30
2017-12-16T16:07:41.700Z,7.93
2017-12-16T16:10:09.239Z,7.40
2017-12-16T16:12:36.764Z,8.13
2017-12-16T16:15:04.272Z,8.90
2017-12-16T16:17:32.270Z,7.97
2017-12-16T16:20:00.620Z,8.30
2017-12-16T16:22:28.091Z,8.68
2017-12-16T16:24:55.593Z,7.97
2017-12-16T16:27:23.186Z,8.30
2017-12-16T16:29:50.753Z,7.10
2017-12-16T16:32:18.353Z,8.37
2017-12-16T16:34:46.348Z,8.43
2017-12-16T16:37:14.152Z,7.70
2017-12-16T16:39:41.726Z,7.37
2017-12-16T16:42:10.061Z,8.50
2017-12-16T16:44:38.364Z,8.00
2017-12-16T16:47:05.976Z,7.30
2017-12-16T16:49:33.484Z,7.80
2017-12-16T16:52:00.913Z,7.60
2017-12-16T16:54:28.525Z,8.43
2017-12-16T16:56:56.139Z,7.60
2017-12-16T16:59:23.534Z,7.90
2017-12-16T17:01:51.025Z,7.00
2017-12-16T17:04:19.758Z,8.10
2017-12-16T17:06:47.284Z,8.07
2017-12-16T17:09:14.773Z,6.70
2017-12-16T17:11:42.216Z,7.17
2017-12-16T17:14:09.718Z,6.73
2017-12-16T17:16:37.499Z,6.10
2017-12-16T17:31:59.994Z,5.13
2017-12-16T17:34:27.502Z,5.60
2017-12-16T17:36:55.392Z,4.60
2017-12-16T17:39:22.948Z,4.70
2017-12-16T17:41:50.519Z,4.17
2017-12-16T17:44:18.089Z,4.10
2017-12-16T17:46:45.669Z,4.13
2017-12-16T17:49:14.339Z,4.50
2017-12-16T17:51:42.101Z,3.30
2017-12-16T17:54:09.983Z,3.73
2017-12-16T17:56:37.566Z,2.23
2017-12-16T17:59:05.028Z,3.90
2017-12-16T18:01:32.820Z,3.23
2017-12-16T18:04:00.342Z,3.33
2017-12-16T18:06:27.943Z,3.50
2017-12-16T18:08:55.617Z,4.27
2017-12-16T18:11:23.313Z,3.90
2017-12-16T18:13:50.760Z,4.33
2017-12-16T18:16:18.196Z,5.03
2017-12-16T18:18:45.611Z,6.43
2017-12-16T18:21:13.088Z,5.23
2017-12-16T18:23:40.528Z,6.57
2017-12-16T18:26:07.963Z,5.40
2017-12-16T18:28:38.468Z,5.20
2017-12-16T18:31:06.003Z,5.20
2017-12-16T18:33:33.500Z,4.90
2017-12-16T18:36:00.976Z,5.63
2017-12-16T18:38:28.404Z,5.07
2017-12-16T18:40:55.926Z,5.17
2017-12-16T18:43:23.332Z,4.53
2017-12-16T18:45:51.351Z,4.63
2017-12-16T18:48:18.869Z,5.60
2017-12-16T18:50:46.292Z,6.47
2017-12-16T18:53:13.995Z,6.03
2017-12-16T18:55:42.786Z,7.60
2017-12-16T18:58:11.122Z,5.83
2017-12-16T19:00:38.717Z,6.65
2017-12-16T19:03:07.017Z,5.80
2017-12-16T19:05:36.713Z,6.80
2017-12-16T19:08:04.375Z,5.53
2017-12-16T19:10:32.052Z,6.20
2017-12-16T19:12:59.561Z,6.00
2017-12-16T19:15:27.760Z,6.70
2017-12-16T19:17:55.336Z,6.53
2017-12-16T19:20:26.760Z,6.07
2017-12-16T19:22:55.332Z,7.10
2017-12-16T19:25:23.745Z,6.60
2017-12-16T19:27:51.955Z,5.80
2017-12-16T19:30:21.551Z,8.47
2017-12-16T19:32:49.204Z,5.90
2017-12-16T19:35:16.728Z,6.63
2017-12-16T19:37:45.522Z,6.67
2017-12-16T19:40:13.360Z,8.30
2017-12-16T19:42:41.636Z,5.40
2017-12-16T19:45:09.209Z,5.43
2017-12-16T19:47:36.598Z,7.57
2017-12-16T19:50:09.793Z,6.20
2017-12-16T19:53:05.260Z,6.53
2017-12-16T19:55:47.400Z,7.17
2017-12-16T19:58:15.229Z,4.60
2017-12-16T20:08:33.065Z,5.93
2017-12-16T20:11:03.483Z,6.40
2017-12-16T20:13:34.684Z,6.40
2017-12-16T20:16:11.240Z,6.67
2017-12-16T20:18:43.869Z,5.93
2017-12-16T20:21:17.743Z,5.80
2017-12-16T20:23:50.056Z,5.80
2017-12-16T20:26:25.734Z,6.80
2017-12-16T20:29:05.047Z,4.60
2017-12-16T20:31:33.019Z,5.67
2017-12-16T20:34:01.896Z,5.00
2017-12-16T20:36:29.420Z,5.27
2017-12-16T20:38:56.832Z,5.37
2017-12-16T20:41:24.407Z,5.27
2017-12-16T20:43:51.862Z,5.20
2017-12-16T20:46:19.403Z,6.10
2017-12-16T20:48:46.831Z,6.00
2017-12-16T20:51:14.517Z,5.47
2017-12-16T20:53:42.023Z,5.93
2017-12-16T20:56:09.443Z,5.60
2017-12-16T20:58:36.985Z,4.90
2017-12-16T21:01:04.472Z,5.33
2017-12-16T21:03:32.040Z,4.77
2017-12-16T21:06:00.651Z,5.07
2017-12-16T21:08:29.058Z,4.37
2017-12-16T21:10:56.909Z,5.57
2017-12-16T21:13:24.380Z,5.77
2017-12-16T21:15:51.972Z,4.93
2017-12-16T21:18:19.574Z,5.67
2017-12-16T21:20:47.127Z,5.30
2017-12-16T21:23:14.559Z,5.13
2017-12-16T21:25:42.032Z,5.50
2017-12-16T21:28:09.511Z,6.57
2017-12-16T21:30:36.979Z,5.40
2017-12-16T21:33:04.394Z,4.73
2017-12-16T21:35:31.863Z,5.60
2017-12-16T21:37:59.293Z,4.93
2017-12-16T21:40:26.995Z,5.83
2017-12-16T21:42:54.445Z,6.90
2017-12-16T21:45:21.888Z,5.60
2017-12-16T21:47:49.346Z,5.77
2017-12-16T21:50:16.788Z,6.30
2017-12-16T21:52:44.229Z,6.33
2017-12-16T21:55:11.689Z,7.33
2017-12-16T21:57:39.146Z,6.37
2017-12-16T22:00:06.580Z,6.10
2017-12-16T22:02:34.051Z,5.47
2017-12-16T22:05:01.514Z,5.40
2017-12-16T22:07:29.009Z,6.10
2017-12-16T22:09:56.428Z,5.37
2017-12-16T22:12:23.872Z,6.30
2017-12-16T22:14:51.330Z,6.20
2017-12-16T22:17:18.860Z,5.47
2017-12-16T22:19:46.318Z,5.67
2017-12-16T22:22:13.784Z,5.83
2017-12-16T22:24:41.255Z,5.80
2017-12-16T22:27:08.786Z,5.17
2017-12-16T22:29:36.267Z,6.07
2017-12-16T22:32:03.714Z,6.53
2017-12-16T22:34:31.166Z,4.33
2017-12-16T22:36:58.617Z,5.07
2017-12-16T22:39:26.104Z,4.65
2017-12-16T22:41:53.720Z,4.70
2017-12-16T22:44:21.498Z,4.60
2017-12-16T22:46:48.992Z,4.93
2017-12-16T22:49:16.423Z,4.50
2017-12-16T22:51:43.845Z,4.47
2017-12-16T22:54:11.295Z,4.60
2017-12-16T22:56:38.727Z,4.50
2017-12-16T22:59:06.538Z,4.53
2017-12-16T23:01:34.017Z,3.90
2017-12-16T23:04:01.432Z,4.00
2017-12-16T23:06:28.890Z,3.70
2017-12-16T23:08:56.571Z,4.60
2017-12-16T23:11:24.068Z,4.60
2017-12-16T23:13:51.498Z,4.10
2017-12-16T23:16:18.937Z,4.63
2017-12-16T23:18:46.390Z,3.57
2017-12-16T23:21:13.837Z,3.70
2017-12-16T23:23:41.315Z,3.70
2017-12-16T23:26:08.730Z,4.13
2017-12-16T23:28:36.187Z,3.93
2017-12-16T23:31:03.606Z,4.07
2017-12-16T23:33:31.022Z,3.37
2017-12-16T23:35:58.432Z,3.30
2017-12-16T23:38:27.169Z,3.00
2017-12-16T23:40:54.728Z,3.20
2017-12-16T23:43:22.166Z,3.17
2017-12-16T23:45:49.552Z,2.67
2017-12-16T23:48:16.982Z,3.73
2017-12-16T23:50:44.407Z,3.30
2017-12-16T23:53:11.890Z,3.23
2017-12-16T23:55:39.329Z,3.70
2017-12-16T23:58:06.737Z,3.10
